Flight Track Log - Related Links

Times and Time Zones

All times are in EDT time to prevent confusion due to time zone crossing. See the CJC3871 flight status page for this flight to view local times or setup timezone preferences in your user account.

Time Position Orientation Groundspeed Altitude Reporting Facility
EDT Latitude Longitude Course Direction KTS MPH feet Rate Location/Type
Wed 05:41:41 PM 38.9667 -77.5500 310° West 168 193 2,400  Level Potomac TRACON
Wed 05:46:20 PM 39.0922 -77.7444 339° North 182 209 6,100 829 Climbing Washington Center
Wed 05:47:21 PM 39.1439 -77.7700 351° North 188 216 7,100 992 Climbing Washington Center
Wed 05:48:21 PM 39.1917 -77.7794 352° North 193 222 8,100 1,000 Climbing Washington Center
Wed 05:49:21 PM 39.2497 -77.7894 345° North 193 222 9,100 1,068 Climbing Washington Center
Wed 05:50:19 PM 39.2994 -77.8069 340° North 198 228 10,200 966 Climbing Washington Center
Wed 05:51:19 PM 39.3492 -77.8300 348° North 193 222 11,000 744 Climbing Washington Center
Wed 05:52:20 PM 39.4050 -77.8450 357° North 193 222 11,700 496 Climbing Washington Center
Wed 05:53:20 PM 39.4611 -77.8494 357° North 193 222 12,000 149 Climbing Washington Center
Wed 05:54:21 PM 39.5236 -77.8542 359° North 205 236 12,000 303 Level Washington Center
Wed 05:55:19 PM 39.5778 -77.8558 North 205 236 12,600 343 Climbing Washington Center
Wed 05:57:16 PM 39.6861 -77.8531 352° North 204 235 13,000 136 Climbing Cleveland Center
Wed 05:58:16 PM 39.7450 -77.8642 338° Northwest 210 242 13,000  Level Cleveland Center
Wed 05:59:15 PM 39.8083 -77.8967 341° North 215 247 13,000  Level Cleveland Center
Wed 06:00:16 PM 39.8650 -77.9217 344° North 220 253 13,000  Level Cleveland Center
Wed 06:01:14 PM 39.9239 -77.9436 308° West 225 259 13,000  Level Cleveland Center
Wed 06:02:15 PM 39.9608 -78.0044 295° West 210 242 13,000 -295 Level Cleveland Center
Wed 06:03:16 PM 39.9853 -78.0739 291° West 207 238 12,400 -1,041 Descending Cleveland Center
Wed 06:04:16 PM 40.0078 -78.1492 295° West 215 247 10,900 -1,750 Descending Cleveland Center
Wed 06:05:16 PM 40.0322 -78.2186 307° West 215 247 8,900 -1,700 Descending Cleveland Center
Wed 06:06:16 PM 40.0647 -78.2744 310° West 203 234 7,500 -1,350 Descending Cleveland Center
Wed 06:07:16 PM 40.1011 -78.3303 298° West 198 228 6,200 -1,385 Descending Cleveland Center
Wed 06:08:13 PM 40.1297 -78.4000 286° West 221 254 4,800 -872 Descending Cleveland Center
Wed 06:09:13 PM 40.1456 -78.4728 288° West 211 243 4,500 -149 Descending Cleveland Center
Wed 06:10:14 PM 40.1636 -78.5456 294° West 213 245 4,500  Level Cleveland Center
Wed 06:11:08 PM 40.1856 -78.6100 290° West 218 251 4,500 -209 Level Cleveland Center
Wed 06:12:09 PM 40.2056 -78.6803 291° West 187 215 4,100 -344 Descending Cleveland Center
Wed 06:13:10 PM 40.2233 -78.7422 316° Northwest 182 209 3,800 -248 Descending Cleveland Center
Wed 06:14:10 PM 40.2572 -78.7847 325° Northwest 168 193 3,600 -496 Descending Cleveland Center
Wed 06:15:11 PM 40.2889 -78.8139 329° Northwest 138 159 2,800 -787 Descending Cleveland Center
Wed 06:22:32 PM 40.6520 -79.0984 329° Northwest  Level Estimated

Login

Don't have an account? Register now (free) for customized features, flight alerts, and more!